createdAt,value
2023-02-11T00:01:28.834Z,102484.00
2023-02-11T00:03:59.173Z,102472.63
2023-02-11T00:06:29.081Z,102476.09
2023-02-11T00:08:58.572Z,102478.72
2023-02-11T00:11:30.280Z,102476.09
2023-02-11T00:13:58.445Z,102470.84
2023-02-11T00:16:26.877Z,102476.06
2023-02-11T00:18:54.910Z,102470.81
2023-02-11T00:21:24.552Z,102483.06
2023-02-11T00:23:52.845Z,102474.28
2023-02-11T00:26:23.917Z,102476.91
2023-02-11T00:28:53.364Z,102476.03
2023-02-11T00:31:22.678Z,102473.41
2023-02-11T00:33:51.135Z,102476.88
2023-02-11T00:36:20.952Z,102465.56
2023-02-11T00:38:49.943Z,102472.56
2023-02-11T00:41:18.526Z,102475.19
2023-02-11T00:43:47.687Z,102468.16
2023-02-11T00:46:16.111Z,102464.66
2023-02-11T00:48:44.702Z,102466.44
2023-02-11T00:51:13.034Z,102469.94
2023-02-11T00:53:41.020Z,102474.28
2023-02-11T00:56:08.998Z,102483.88
2023-02-11T00:58:36.833Z,102477.78
2023-02-11T01:01:06.448Z,102469.88
2023-02-11T01:03:34.684Z,102474.25
2023-02-11T01:06:02.601Z,102466.38
2023-02-11T01:08:30.447Z,102465.50
2023-02-11T01:10:59.544Z,102476.00
2023-02-11T01:13:27.823Z,102471.63
2023-02-11T01:15:56.207Z,102469.91
2023-02-11T01:18:25.886Z,102474.28
2023-02-11T01:20:54.373Z,102470.81
2023-02-11T01:23:22.563Z,102469.09
2023-02-11T01:25:50.994Z,102462.94
2023-02-11T01:28:20.289Z,102457.69
2023-02-11T01:30:48.573Z,102446.28
2023-02-11T01:33:16.620Z,102443.63
2023-02-11T01:35:46.094Z,102440.09
2023-02-11T01:38:18.402Z,102434.84
2023-02-11T01:40:50.278Z,102442.66
2023-02-11T01:43:18.339Z,102433.03
2023-02-11T01:46:13.867Z,102431.25
2023-02-11T01:48:45.259Z,102428.63
2023-02-11T01:51:17.969Z,102419.00
2023-02-11T01:54:05.337Z,102426.88
2023-02-11T01:56:53.656Z,102426.00
2023-02-11T01:59:25.458Z,102426.03
2023-02-11T02:01:59.868Z,102423.44
2023-02-11T02:04:33.562Z,102416.41
2023-02-11T02:07:07.443Z,102409.34
2023-02-11T02:09:40.672Z,102399.72
2023-02-11T02:12:08.810Z,102388.34
2023-02-11T02:14:39.999Z,102391.81
2023-02-11T02:17:08.543Z,102383.91
2023-02-11T02:20:23.448Z,102390.88
2023-02-11T02:23:18.408Z,102388.22
2023-02-11T02:26:19.860Z,102377.66
2023-02-11T02:29:25.189Z,102371.47
2023-02-11T02:32:24.307Z,102377.53
2023-02-11T02:34:59.321Z,102374.84
2023-02-11T02:37:34.319Z,102370.44
2023-02-11T02:40:09.028Z,102357.28
2023-02-11T02:42:37.703Z,102362.47
2023-02-11T02:45:07.770Z,102361.56
2023-02-11T02:47:36.970Z,102357.16
2023-02-11T02:50:05.981Z,102348.41
2023-02-11T02:52:40.828Z,102352.72
2023-02-11T02:55:19.970Z,102350.97
2023-02-11T02:58:12.908Z,102353.75
2023-02-11T03:00:48.823Z,102346.88
2023-02-11T03:03:35.886Z,102350.47
2023-02-11T03:06:09.104Z,102347.91
2023-02-11T03:08:43.336Z,102345.28
2023-02-11T03:11:12.639Z,102349.56
2023-02-11T03:13:41.826Z,102360.06
2023-02-11T03:16:14.561Z,102362.69
2023-02-11T03:18:50.570Z,102368.84
2023-02-11T03:21:21.208Z,102376.69
2023-02-11T03:23:53.680Z,102382.78
2023-02-11T03:26:26.724Z,102377.59
2023-02-11T03:28:58.871Z,102374.88
2023-02-11T03:31:34.537Z,102381.00
2023-02-11T03:34:08.720Z,102378.34
2023-02-11T03:36:45.996Z,102383.56
2023-02-11T03:39:15.702Z,102371.34
2023-02-11T03:41:44.861Z,102366.94
2023-02-11T03:44:16.360Z,102358.16
2023-02-11T03:46:49.149Z,102356.44
2023-02-11T03:49:21.488Z,102359.91
2023-02-11T03:51:52.761Z,102353.81
2023-02-11T03:54:25.347Z,102365.22
2023-02-11T03:56:55.924Z,102368.72
2023-02-11T03:59:23.760Z,102344.16
2023-02-11T04:01:51.551Z,102339.75
2023-02-11T04:04:20.616Z,102336.25
2023-02-11T04:06:48.427Z,102338.06
2023-02-11T04:09:16.233Z,102343.31
2023-02-11T04:11:43.964Z,102330.25
2023-02-11T04:14:11.787Z,102321.53
2023-02-11T04:16:39.590Z,102318.88
2023-02-11T04:19:07.373Z,102323.31
2023-02-11T04:21:36.531Z,102316.28
2023-02-11T04:24:04.526Z,102306.63
2023-02-11T04:26:32.271Z,102295.19
2023-02-11T04:28:59.922Z,102288.19
2023-02-11T04:31:27.739Z,102282.94
2023-02-11T04:33:55.513Z,102277.69
2023-02-11T04:36:23.352Z,102277.69
2023-02-11T04:38:52.368Z,102275.97
2023-02-11T04:41:20.117Z,102268.16
2023-02-11T04:43:47.846Z,102268.16
2023-02-11T04:46:15.632Z,102269.03
2023-02-11T04:48:43.463Z,102258.53
2023-02-11T04:51:11.234Z,102267.31
2023-02-11T04:53:38.990Z,102261.16
2023-02-11T04:56:08.241Z,102268.16
2023-02-11T04:58:36.055Z,102276.91
2023-02-11T05:01:07.998Z,102285.63
2023-02-11T05:03:35.812Z,102292.66
2023-02-11T05:06:03.567Z,102293.56
2023-02-11T05:08:31.449Z,102306.75
2023-02-11T05:10:59.298Z,102303.31
2023-02-11T05:13:28.480Z,102310.38
2023-02-11T05:15:56.256Z,102301.66
2023-02-11T05:18:24.304Z,102299.06
2023-02-11T05:20:51.990Z,102307.06
2023-02-11T05:23:19.701Z,102301.00
2023-02-11T05:25:47.411Z,102308.94
2023-02-11T05:28:15.210Z,102323.84
2023-02-11T05:30:44.349Z,102325.63
2023-02-11T05:33:12.141Z,102334.41
2023-02-11T05:35:39.840Z,102318.66
2023-02-11T05:38:07.590Z,102316.00
2023-02-11T05:40:35.301Z,102315.13
2023-02-11T05:43:03.082Z,102305.53
2023-02-11T05:45:31.789Z,102312.53
2023-02-11T05:48:01.038Z,102302.91
2023-02-11T05:50:28.818Z,102300.28
2023-02-11T05:52:56.549Z,102288.00
2023-02-11T05:55:24.506Z,102292.34
2023-02-11T05:57:52.236Z,102304.63
2023-02-11T06:00:20.382Z,102302.84
2023-02-11T06:02:48.118Z,102320.31
2023-02-11T06:05:17.384Z,102311.59
2023-02-11T06:07:45.144Z,102306.34
2023-02-11T06:10:13.555Z,102303.75
2023-02-11T06:12:41.518Z,102315.13
2023-02-11T06:15:09.500Z,102317.75
2023-02-11T06:17:37.412Z,102319.50
2023-02-11T06:20:07.255Z,102309.91
2023-02-11T06:22:36.347Z,102310.78
2023-02-11T06:25:04.188Z,102299.38
2023-02-11T06:27:31.924Z,102304.63
2023-02-11T06:29:59.611Z,102315.13
2023-02-11T06:32:45.636Z,102306.38
2023-02-11T06:35:14.322Z,102302.84
2023-02-11T06:37:43.920Z,102294.97
2023-02-11T06:40:12.659Z,102297.59
2023-02-11T06:42:40.487Z,102313.34
2023-02-11T06:45:11.148Z,102322.06
2023-02-11T06:47:39.163Z,102322.94
2023-02-11T06:50:09.224Z,102312.44
2023-02-11T06:52:36.973Z,102316.81
2023-02-11T06:55:06.594Z,102308.09
2023-02-11T06:57:34.371Z,102311.63
2023-02-11T07:00:02.534Z,102316.88
2023-02-11T07:02:30.525Z,102323.03
2023-02-11T07:04:58.502Z,102335.31
2023-02-11T07:07:26.280Z,102338.84
2023-02-11T07:09:54.111Z,102337.13
2023-02-11T07:12:23.194Z,102345.84
2023-02-11T07:14:50.990Z,102351.09
2023-02-11T07:17:18.711Z,102337.06
2023-02-11T07:19:46.497Z,102339.66
2023-02-11T07:22:14.253Z,102335.25
2023-02-11T07:24:42.136Z,102330.00
2023-02-11T07:27:09.883Z,102322.09
2023-02-11T07:29:39.109Z,102326.41
2023-02-11T07:32:07.263Z,102325.50
2023-02-11T07:34:35.315Z,102321.94
2023-02-11T07:37:03.211Z,102319.28
2023-02-11T07:39:31.106Z,102319.25
2023-02-11T07:41:58.886Z,102314.00
2023-02-11T07:44:26.688Z,102326.19
2023-02-11T07:46:55.766Z,102327.91
2023-02-11T07:49:23.480Z,102322.59
2023-02-11T07:51:51.495Z,102328.69
2023-02-11T07:54:19.308Z,102328.63
2023-02-11T07:56:47.079Z,102321.59
2023-02-11T07:59:14.851Z,102330.25
2023-02-11T08:01:42.586Z,102325.00
2023-02-11T08:04:11.827Z,102338.06
2023-02-11T08:06:43.617Z,102344.22
2023-02-11T08:09:16.538Z,102352.88
2023-02-11T08:11:44.442Z,102354.50
2023-02-11T08:14:12.833Z,102355.25
2023-02-11T08:16:41.258Z,102345.50
2023-02-11T08:19:13.598Z,102326.97
2023-02-11T08:21:41.825Z,102325.13
2023-02-11T08:24:09.995Z,102330.28
2023-02-11T08:26:38.935Z,102332.81
2023-02-11T08:29:09.407Z,102337.09
2023-02-11T08:31:39.743Z,102332.59
2023-02-11T08:34:08.005Z,102332.50
2023-02-11T08:36:38.890Z,102327.25
2023-02-11T08:39:18.483Z,102334.16
2023-02-11T08:41:48.871Z,102336.72
2023-02-11T08:44:17.039Z,102333.00
2023-02-11T08:46:45.207Z,102331.03
2023-02-11T08:49:13.113Z,102327.25
2023-02-11T08:51:42.336Z,102343.63
2023-02-11T08:54:10.546Z,102337.22
2023-02-11T08:56:39.043Z,102347.31
2023-02-11T08:59:09.268Z,102339.84
2023-02-11T09:01:37.442Z,102342.88
2023-02-11T09:04:05.466Z,102336.97
2023-02-11T09:06:33.520Z,102347.94
2023-02-11T09:09:02.832Z,102360.69
2023-02-11T09:11:33.447Z,102364.88
2023-02-11T09:14:01.970Z,102367.13
2023-02-11T09:16:33.664Z,102371.03
2023-02-11T09:19:03.177Z,102364.94
2023-02-11T09:21:31.714Z,102359.22
2023-02-11T09:23:59.838Z,102357.00
2023-02-11T09:26:31.515Z,102359.13
2023-02-11T09:28:59.807Z,102360.41
2023-02-11T09:31:29.396Z,102365.44
2023-02-11T09:33:59.910Z,102367.75
2023-02-11T09:36:30.433Z,102369.19
2023-02-11T09:39:00.692Z,102369.19
2023-02-11T09:41:46.532Z,102377.22
2023-02-11T09:44:21.034Z,102374.78
2023-02-11T09:46:55.814Z,102369.09
2023-02-11T09:49:32.491Z,102377.34
2023-02-11T09:52:05.759Z,102369.06
2023-02-11T09:54:40.628Z,102373.97
2023-02-11T09:57:26.449Z,102373.81
2023-02-11T09:59:56.396Z,102380.72
2023-02-11T10:02:29.373Z,102376.75
2023-02-11T10:05:11.291Z,102373.28
2023-02-11T10:07:46.429Z,102377.00
2023-02-11T10:10:35.017Z,102375.22
2023-02-11T10:13:21.015Z,102383.34
2023-02-11T10:15:57.234Z,102386.03
2023-02-11T10:18:46.492Z,102385.59
2023-02-11T10:21:21.163Z,102384.69
2023-02-11T10:23:53.962Z,102373.25
2023-02-11T10:26:22.365Z,102378.41
2023-02-11T10:28:55.508Z,102374.00
2023-02-11T10:31:27.221Z,102379.41
2023-02-11T10:34:00.727Z,102380.97
2023-02-11T10:36:31.030Z,102374.56
2023-02-11T10:39:00.724Z,102375.25
2023-02-11T10:41:34.974Z,102375.84
2023-02-11T10:44:07.878Z,102368.38
2023-02-11T10:46:38.077Z,102360.44
2023-02-11T10:49:05.805Z,102359.25
2023-02-11T10:51:35.183Z,102361.72
2023-02-11T10:54:19.462Z,102361.06
2023-02-11T10:56:52.223Z,102359.88
2023-02-11T10:59:28.459Z,102355.13
2023-02-11T11:02:00.708Z,102354.75
2023-02-11T11:04:38.256Z,102352.16
2023-02-11T11:07:16.921Z,102349.53
2023-02-11T11:09:48.465Z,102356.16
2023-02-11T11:12:31.992Z,102358.88
2023-02-11T11:15:03.802Z,102360.72
2023-02-11T11:17:31.856Z,102368.22
2023-02-11T11:20:20.285Z,102367.88
2023-02-11T11:22:49.289Z,102360.09
2023-02-11T11:25:25.771Z,102371.97
2023-02-11T11:27:57.058Z,102374.41
2023-02-11T11:30:32.406Z,102370.47
2023-02-11T11:33:01.964Z,102371.81
2023-02-11T11:35:33.023Z,102372.72
2023-02-11T11:38:03.351Z,102369.19
2023-02-11T11:40:32.677Z,102382.47
2023-02-11T11:43:20.253Z,102380.97
2023-02-11T11:45:59.265Z,102369.84
2023-02-11T11:48:32.583Z,102366.19
2023-02-11T11:51:03.188Z,102363.84
2023-02-11T11:53:39.082Z,102356.88
2023-02-11T11:56:11.813Z,102367.03
2023-02-11T11:58:39.530Z,102359.06
2023-02-11T12:01:23.347Z,102362.00
2023-02-11T12:04:19.673Z,102368.84
2023-02-11T12:06:57.575Z,102357.41
2023-02-11T12:09:37.016Z,102353.16
2023-02-11T12:12:29.328Z,102354.00
2023-02-11T12:15:11.362Z,102346.41
2023-02-11T12:17:56.638Z,102335.56
2023-02-11T12:20:33.904Z,102330.03
2023-02-11T12:23:16.057Z,102337.06
2023-02-11T12:25:52.508Z,102331.84
2023-02-11T12:28:32.944Z,102335.56
2023-02-11T12:31:16.746Z,102336.94
2023-02-11T12:34:06.249Z,102331.22
2023-02-11T12:36:48.974Z,102335.56
2023-02-11T12:39:32.647Z,102333.28
2023-02-11T12:42:42.620Z,102328.28
2023-02-11T12:45:22.918Z,102324.75
2023-02-11T12:48:04.704Z,102335.72
2023-02-11T12:50:46.154Z,102338.94
2023-02-11T12:53:31.875Z,102338.50
2023-02-11T12:56:05.034Z,102338.88
2023-02-11T12:58:44.976Z,102341.75
2023-02-11T13:01:20.227Z,102336.09
2023-02-11T13:03:53.992Z,102344.66
2023-02-11T13:06:30.276Z,102335.00
2023-02-11T13:09:02.193Z,102337.97
2023-02-11T13:11:34.164Z,102326.91
2023-02-11T13:14:05.146Z,102330.56
2023-02-11T13:16:39.297Z,102335.72
2023-02-11T13:19:19.482Z,102332.56
2023-02-11T13:22:04.458Z,102324.38
2023-02-11T13:24:44.294Z,102332.75
2023-02-11T13:27:26.433Z,102326.97
2023-02-11T13:30:21.435Z,102317.41
2023-02-11T13:33:20.547Z,102315.69
2023-02-11T13:36:13.186Z,102325.38
2023-02-11T13:38:51.811Z,102326.34
2023-02-11T13:41:24.738Z,102330.06
2023-02-11T13:44:00.173Z,102328.47
2023-02-11T13:46:30.739Z,102309.97
2023-02-11T13:48:59.439Z,102310.91
2023-02-11T13:51:38.879Z,102316.38
2023-02-11T13:54:09.562Z,102309.66
2023-02-11T13:56:39.742Z,102312.31
2023-02-11T13:59:42.345Z,102319.47
2023-02-11T14:02:42.537Z,102324.72
2023-02-11T14:05:48.792Z,102322.03
2023-02-11T14:08:43.695Z,102314.22
2023-02-11T14:11:52.409Z,102309.94
2023-02-11T14:14:25.913Z,102320.84
2023-02-11T14:17:30.938Z,102323.66
2023-02-11T14:19:59.917Z,102324.47
2023-02-11T14:22:30.283Z,102322.84
2023-02-11T14:25:00.856Z,102314.06
2023-02-11T14:27:43.341Z,102305.31
2023-02-11T14:30:27.370Z,102309.81
2023-02-11T14:33:18.079Z,102311.69
2023-02-11T14:36:00.596Z,102308.22
2023-02-11T14:38:36.939Z,102307.38
2023-02-11T14:41:09.056Z,102307.50
2023-02-11T14:43:43.044Z,102301.28
2023-02-11T14:46:11.150Z,102312.84
2023-02-11T14:48:44.608Z,102310.06
2023-02-11T14:51:16.011Z,102315.47
2023-02-11T14:53:47.504Z,102322.63
2023-02-11T14:56:22.375Z,102326.09
2023-02-11T14:58:52.977Z,102318.25
2023-02-11T15:01:30.843Z,102312.25
2023-02-11T15:03:59.469Z,102306.84
2023-02-11T15:06:31.555Z,102312.19
2023-02-11T15:09:02.099Z,102314.81
2023-02-11T15:11:32.891Z,102316.66
2023-02-11T15:14:09.556Z,102317.66
2023-02-11T15:16:43.389Z,102317.69
2023-02-11T15:19:21.137Z,102316.84
2023-02-11T15:21:51.780Z,102326.44
2023-02-11T15:24:25.284Z,102330.00
2023-02-11T15:27:00.952Z,102329.06
2023-02-11T15:29:37.384Z,102328.06
2023-02-11T15:32:07.388Z,102329.88
2023-02-11T15:34:35.969Z,102331.63
2023-02-11T15:37:04.507Z,102328.88
2023-02-11T15:39:35.576Z,102330.63
2023-02-11T15:42:21.180Z,102332.34
2023-02-11T15:44:56.592Z,102330.63
2023-02-11T15:47:30.895Z,102333.28
2023-02-11T15:49:59.165Z,102331.53
2023-02-11T15:52:28.984Z,102336.97
2023-02-11T15:55:00.708Z,102338.75
2023-02-11T15:57:29.321Z,102342.25
2023-02-11T16:00:04.570Z,102342.25
2023-02-11T16:02:34.423Z,102337.88
2023-02-11T16:05:05.613Z,102339.63
2023-02-11T16:07:44.842Z,102352.00
2023-02-11T16:10:25.631Z,102355.56
2023-02-11T16:13:18.247Z,102358.25
2023-02-11T16:15:55.505Z,102360.97
2023-02-11T16:18:38.864Z,102360.97
2023-02-11T16:21:14.425Z,102357.44
2023-02-11T16:23:43.430Z,102360.91
2023-02-11T16:26:22.047Z,102364.47
2023-02-11T16:28:50.263Z,102362.81
2023-02-11T16:31:20.045Z,102373.34
2023-02-11T16:33:47.885Z,102374.28
2023-02-11T16:36:18.105Z,102376.91
2023-02-11T16:38:45.998Z,102392.00
2023-02-11T16:41:14.319Z,102393.91
2023-02-11T16:43:42.056Z,102384.38
2023-02-11T16:46:13.848Z,102384.50
2023-02-11T16:48:43.216Z,102383.66
2023-02-11T16:51:13.171Z,102378.38
2023-02-11T16:53:41.155Z,102391.59
2023-02-11T16:56:15.095Z,102392.44
2023-02-11T16:58:42.853Z,102388.88
2023-02-11T17:01:13.750Z,102383.56
2023-02-11T17:03:43.768Z,102383.56
2023-02-11T17:06:13.575Z,102385.38
2023-02-11T17:08:42.031Z,102385.38
2023-02-11T17:11:09.815Z,102386.22
2023-02-11T17:13:39.440Z,102395.06
2023-02-11T17:16:07.218Z,102390.66
2023-02-11T17:18:36.003Z,102394.25
2023-02-11T17:21:07.481Z,102391.59
2023-02-11T17:23:35.158Z,102392.50
2023-02-11T17:26:02.947Z,102396.06
2023-02-11T17:28:30.741Z,102390.81
2023-02-11T17:30:58.523Z,102391.69
2023-02-11T17:33:26.434Z,102389.97
2023-02-11T17:35:54.514Z,102397.94
2023-02-11T17:38:23.964Z,102399.78
2023-02-11T17:40:58.738Z,102396.25
2023-02-11T17:43:26.552Z,102397.25
2023-02-11T17:45:54.762Z,102397.41
2023-02-11T17:48:22.760Z,102399.16
2023-02-11T17:50:50.521Z,102400.03
2023-02-11T17:53:18.392Z,102397.41
2023-02-11T17:55:47.455Z,102410.81
2023-02-11T17:58:15.230Z,102407.38
2023-02-11T18:00:43.405Z,102407.47
2023-02-11T18:03:11.174Z,102419.97
2023-02-11T18:05:39.524Z,102421.91
2023-02-11T18:08:08.619Z,102421.22
2023-02-11T18:10:36.394Z,102417.84
2023-02-11T18:13:05.823Z,102418.91
2023-02-11T18:15:34.704Z,102422.59
2023-02-11T18:18:02.483Z,102419.13
2023-02-11T18:20:30.379Z,102420.94
2023-02-11T18:22:58.121Z,102428.00
2023-02-11T18:25:25.908Z,102425.38
2023-02-11T18:27:53.666Z,102434.19
2023-02-11T18:30:24.194Z,102426.22
2023-02-11T18:32:54.834Z,102424.44
2023-02-11T18:35:22.920Z,102419.22
2023-02-11T18:37:50.961Z,102424.53
2023-02-11T18:40:19.070Z,102428.16
2023-02-11T18:42:47.482Z,102429.94
2023-02-11T18:45:15.972Z,102423.78
2023-02-11T18:47:45.205Z,102416.78
2023-02-11T18:50:15.542Z,102414.16
2023-02-11T18:52:43.759Z,102420.44
2023-02-11T18:55:11.586Z,102427.63
2023-02-11T18:57:39.594Z,102421.44
2023-02-11T19:00:10.000Z,102421.47
2023-02-11T19:02:37.956Z,102413.59
2023-02-11T19:05:07.808Z,102419.88
2023-02-11T19:07:35.519Z,102420.75
2023-02-11T19:10:03.460Z,102415.56
2023-02-11T19:12:33.135Z,102411.19
2023-02-11T19:15:01.554Z,102413.00
2023-02-11T19:17:29.325Z,102418.41
2023-02-11T19:19:57.177Z,102421.91
2023-02-11T19:22:26.362Z,102417.44
2023-02-11T19:24:54.206Z,102412.09
2023-02-11T19:27:21.927Z,102407.53
2023-02-11T19:29:49.691Z,102408.34
2023-02-11T19:32:17.677Z,102404.72
2023-02-11T19:34:45.407Z,102407.38
2023-02-11T19:37:13.906Z,102410.81
2023-02-11T19:39:43.933Z,102414.28
2023-02-11T19:42:12.112Z,102430.97
2023-02-11T19:44:40.093Z,102432.81
2023-02-11T19:47:07.988Z,102439.03
2023-02-11T19:49:35.696Z,102432.81
2023-02-11T19:52:03.574Z,102436.28
2023-02-11T19:54:31.417Z,102430.97
2023-02-11T19:57:00.657Z,102431.91
2023-02-11T19:59:28.455Z,102439.09
2023-02-11T20:01:57.582Z,102440.88
2023-02-11T20:04:25.744Z,102433.94
2023-02-11T20:06:53.554Z,102432.19
2023-02-11T20:09:21.731Z,102433.09
2023-02-11T20:11:50.094Z,102439.25
2023-02-11T20:14:19.356Z,102443.66
2023-02-11T20:16:49.829Z,102439.28
2023-02-11T20:19:19.990Z,102445.41
2023-02-11T20:21:48.922Z,102447.31
2023-02-11T20:24:17.413Z,102445.59
2023-02-11T20:26:46.947Z,102449.13
2023-02-11T20:29:15.283Z,102444.78
2023-02-11T20:31:44.603Z,102450.13
2023-02-11T20:34:12.985Z,102454.63
2023-02-11T20:36:41.158Z,102459.94
2023-02-11T20:39:08.961Z,102459.09
2023-02-11T20:41:40.031Z,102459.97
2023-02-11T20:44:11.059Z,102463.50
2023-02-11T20:46:40.852Z,102470.59
2023-02-11T20:49:12.255Z,102468.78
2023-02-11T20:51:40.639Z,102467.91
2023-02-11T20:54:12.510Z,102455.56
2023-02-11T20:56:40.760Z,102451.09
2023-02-11T20:59:08.920Z,102459.91
2023-02-11T21:01:40.280Z,102451.16
2023-02-11T21:04:12.857Z,102454.66
2023-02-11T21:06:43.990Z,102448.44
2023-02-11T21:09:14.239Z,102454.66
2023-02-11T21:11:42.162Z,102450.28
2023-02-11T21:14:10.223Z,102449.41
2023-02-11T21:16:38.333Z,102448.69
2023-02-11T21:19:07.051Z,102450.41
2023-02-11T21:21:38.626Z,102453.16
2023-02-11T21:24:07.628Z,102452.25
2023-02-11T21:26:36.359Z,102454.03
2023-02-11T21:29:04.655Z,102446.13
2023-02-11T21:31:34.465Z,102456.72
2023-02-11T21:34:02.412Z,102447.03
2023-02-11T21:36:30.610Z,102445.31
2023-02-11T21:39:01.746Z,102448.94
2023-02-11T21:41:30.036Z,102455.16
2023-02-11T21:43:58.148Z,102455.16
2023-02-11T21:46:26.145Z,102459.53
2023-02-11T21:48:54.541Z,102453.38
2023-02-11T21:51:24.624Z,102456.88
2023-02-11T21:53:54.906Z,102459.50
2023-02-11T21:56:26.370Z,102463.91
2023-02-11T21:58:56.087Z,102474.50
2023-02-11T22:01:26.986Z,102464.81
2023-02-11T22:03:54.782Z,102471.03
2023-02-11T22:06:27.081Z,102472.78
2023-02-11T22:08:55.911Z,102483.41
2023-02-11T22:11:25.358Z,102481.66
2023-02-11T22:13:54.752Z,102491.34
2023-02-11T22:16:23.072Z,102488.69
2023-02-11T22:18:51.478Z,102493.94
2023-02-11T22:21:22.315Z,102500.13
2023-02-11T22:23:51.454Z,102498.38
2023-02-11T22:26:21.872Z,102506.41
2023-02-11T22:28:52.162Z,102501.16
2023-02-11T22:31:22.796Z,102500.41
2023-02-11T22:33:51.149Z,102503.09
2023-02-11T22:36:21.470Z,102496.09
2023-02-11T22:38:49.231Z,102504.09
2023-02-11T22:41:18.006Z,102500.59
2023-02-11T22:43:46.184Z,102500.63
2023-02-11T22:46:17.822Z,102493.59
2023-02-11T22:48:45.979Z,102488.31
2023-02-11T22:51:16.217Z,102487.47
2023-02-11T22:53:44.548Z,102489.28
2023-02-11T22:56:15.825Z,102487.53
2023-02-11T22:58:44.120Z,102487.47
2023-02-11T23:01:12.608Z,102483.91
2023-02-11T23:03:42.200Z,102482.09
2023-02-11T23:06:12.639Z,102484.75
2023-02-11T23:08:42.849Z,102474.13
2023-02-11T23:11:13.437Z,102478.47
2023-02-11T23:13:42.545Z,102479.41
2023-02-11T23:16:12.548Z,102481.22
2023-02-11T23:18:43.259Z,102471.59
2023-02-11T23:21:13.676Z,102488.38
2023-02-11T23:23:41.459Z,102494.59
2023-02-11T23:26:11.332Z,102496.41
2023-02-11T23:28:39.306Z,102499.03
2023-02-11T23:31:14.963Z,102506.13
2023-02-11T23:33:44.124Z,102503.59
2023-02-11T23:36:12.283Z,102508.03
2023-02-11T23:38:40.337Z,102512.44
2023-02-11T23:41:08.490Z,102515.06
2023-02-11T23:43:36.414Z,102510.69
2023-02-11T23:46:04.683Z,102524.78
2023-02-11T23:48:32.421Z,102524.81
2023-02-11T23:51:01.515Z,102524.78
2023-02-11T23:53:29.322Z,102532.72
2023-02-11T23:55:57.184Z,102521.25
2023-02-11T23:58:25.205Z,102532.69
